createdAt,value
2022-10-05T00:02:33.216Z,5.63
2022-10-05T00:05:02.453Z,7.72
2022-10-05T00:07:32.112Z,8.57
2022-10-05T00:10:10.930Z,5.30
2022-10-05T00:12:40.295Z,7.20
2022-10-05T00:15:13.809Z,7.35
2022-10-05T00:17:43.761Z,5.32
2022-10-05T00:20:23.226Z,5.47
2022-10-05T00:22:57.635Z,6.20
2022-10-05T00:25:28.385Z,9.13
2022-10-05T00:27:59.797Z,7.68
2022-10-05T00:30:35.200Z,5.60
2022-10-05T00:33:04.635Z,8.63
2022-10-05T00:35:37.490Z,10.63
2022-10-05T00:38:06.999Z,10.90
2022-10-05T00:40:56.705Z,7.77
2022-10-05T00:43:42.110Z,6.68
2022-10-05T00:46:17.542Z,6.18
2022-10-05T00:48:57.598Z,10.57
2022-10-05T00:51:29.825Z,9.50
2022-10-05T00:54:18.501Z,9.82
2022-10-05T00:57:09.124Z,9.73
2022-10-05T00:59:50.595Z,10.48
2022-10-05T01:02:35.853Z,10.15
2022-10-05T01:05:14.021Z,9.30
2022-10-05T01:07:51.967Z,10.57
2022-10-05T01:10:29.511Z,12.27
2022-10-05T01:13:08.501Z,8.95
2022-10-05T01:15:44.067Z,10.27
2022-10-05T01:18:17.891Z,9.45
2022-10-05T01:20:57.350Z,10.00
2022-10-05T01:23:59.071Z,8.18
2022-10-05T01:26:45.044Z,6.85
2022-10-05T01:29:23.669Z,7.78
2022-10-05T01:32:01.432Z,8.98
2022-10-05T01:34:39.242Z,6.93
2022-10-05T01:37:16.781Z,10.27
2022-10-05T01:39:55.940Z,7.13
2022-10-05T01:42:37.101Z,9.23
2022-10-05T01:45:15.869Z,8.82
2022-10-05T01:47:48.898Z,11.15
2022-10-05T01:50:31.194Z,10.80
2022-10-05T01:53:09.079Z,10.18
2022-10-05T01:55:45.932Z,9.80
2022-10-05T01:58:26.236Z,7.57
2022-10-05T02:01:02.064Z,8.02
2022-10-05T02:03:36.926Z,9.27
2022-10-05T02:06:13.589Z,7.38
2022-10-05T02:08:48.063Z,7.18
2022-10-05T02:11:19.633Z,9.30
2022-10-05T02:13:57.104Z,10.10
2022-10-05T02:16:34.520Z,10.52
2022-10-05T02:19:10.436Z,8.70
2022-10-05T02:21:42.119Z,5.32
2022-10-05T02:24:18.728Z,7.00
2022-10-05T02:26:49.880Z,9.77
2022-10-05T02:29:24.306Z,10.73
2022-10-05T02:31:59.061Z,10.10
2022-10-05T02:34:30.283Z,11.65
2022-10-05T02:37:29.955Z,11.45
2022-10-05T02:40:14.754Z,9.75
2022-10-05T02:42:53.221Z,13.68
2022-10-05T02:45:33.413Z,12.80
2022-10-05T02:48:13.959Z,12.63
2022-10-05T02:50:52.665Z,15.30
2022-10-05T02:53:28.645Z,13.50
2022-10-05T02:56:12.217Z,10.73
2022-10-05T02:58:49.460Z,12.52
2022-10-05T03:01:26.063Z,10.15
2022-10-05T03:04:08.887Z,9.13
2022-10-05T03:06:45.750Z,9.65
2022-10-05T03:09:18.827Z,8.52
2022-10-05T03:12:00.140Z,8.98
2022-10-05T03:14:38.969Z,8.23
2022-10-05T03:17:15.266Z,8.77
2022-10-05T03:20:13.162Z,12.75
2022-10-05T03:22:50.800Z,11.98
2022-10-05T03:25:46.182Z,8.00
2022-10-05T03:28:25.482Z,8.30
2022-10-05T03:31:01.839Z,9.63
2022-10-05T03:33:40.479Z,12.70
2022-10-05T03:36:19.358Z,13.05
2022-10-05T03:38:56.660Z,16.77
2022-10-05T03:41:32.782Z,29.95
2022-10-05T03:44:30.510Z,27.33
2022-10-05T03:47:20.297Z,35.20
2022-10-05T03:50:03.129Z,34.92
2022-10-05T03:52:40.910Z,26.58
2022-10-05T03:55:21.199Z,15.63
2022-10-05T04:00:24.327Z,32.13
2022-10-05T04:03:05.090Z,31.15
2022-10-05T04:05:39.551Z,12.75
2022-10-05T04:08:19.752Z,22.20
2022-10-05T04:10:53.204Z,8.30
2022-10-05T04:13:29.701Z,8.25
2022-10-05T04:16:05.209Z,11.55
2022-10-05T04:18:37.986Z,9.45
2022-10-05T04:21:12.874Z,10.88
2022-10-05T04:23:53.204Z,11.85
2022-10-05T04:26:36.965Z,12.27
2022-10-05T04:29:15.250Z,12.55
2022-10-05T04:31:56.795Z,8.80
2022-10-05T04:34:47.185Z,9.05
2022-10-05T04:37:22.376Z,7.15
2022-10-05T04:40:04.388Z,7.60
2022-10-05T04:42:40.221Z,12.65
2022-10-05T04:45:15.710Z,10.82
2022-10-05T04:48:11.092Z,11.13
2022-10-05T04:50:58.545Z,12.73
2022-10-05T04:53:33.051Z,7.88
2022-10-05T04:56:10.846Z,10.60
2022-10-05T04:59:18.665Z,10.70
2022-10-05T05:02:03.349Z,9.75
2022-10-05T05:05:10.276Z,9.90
2022-10-05T05:07:49.168Z,8.73
2022-10-05T05:10:44.722Z,10.23
2022-10-05T05:13:33.168Z,8.80
2022-10-05T05:16:09.895Z,8.32
2022-10-05T05:18:59.406Z,10.60
2022-10-05T05:21:39.113Z,12.02
2022-10-05T05:24:16.470Z,8.65
2022-10-05T05:27:05.089Z,12.52
2022-10-05T05:29:49.625Z,9.15
2022-10-05T05:32:28.323Z,10.25
2022-10-05T05:35:13.327Z,11.98
2022-10-05T05:37:53.368Z,9.75
2022-10-05T05:40:28.872Z,8.68
2022-10-05T05:43:02.210Z,9.52
2022-10-05T05:45:41.724Z,8.88
2022-10-05T05:48:20.262Z,8.98
2022-10-05T05:50:57.352Z,11.35
2022-10-05T05:53:32.719Z,12.60
2022-10-05T05:56:09.580Z,8.52
2022-10-05T05:58:46.850Z,9.73
2022-10-05T06:01:33.167Z,10.13
2022-10-05T06:04:13.875Z,13.45
2022-10-05T06:06:48.327Z,9.88
2022-10-05T06:09:25.866Z,11.02
2022-10-05T06:12:13.775Z,9.90
2022-10-05T06:14:48.699Z,11.82
2022-10-05T06:17:23.796Z,8.18
2022-10-05T06:20:02.465Z,11.05
2022-10-05T06:22:38.397Z,9.95
2022-10-05T06:25:24.397Z,10.88
2022-10-05T06:28:10.225Z,9.63
2022-10-05T06:31:00.190Z,14.10
2022-10-05T06:33:48.762Z,15.50
2022-10-05T06:36:36.188Z,7.45
2022-10-05T06:39:29.063Z,9.63
2022-10-05T06:42:15.538Z,12.00
2022-10-05T06:45:26.420Z,10.38
2022-10-05T06:48:21.222Z,11.15
2022-10-05T06:51:27.482Z,9.23
2022-10-05T06:54:49.797Z,10.25
2022-10-05T06:57:47.552Z,10.60
2022-10-05T07:00:20.741Z,10.40
2022-10-05T07:02:59.854Z,9.38
2022-10-05T07:05:56.696Z,11.68
2022-10-05T07:08:40.721Z,12.20
2022-10-05T07:11:24.072Z,12.07
2022-10-05T07:14:10.490Z,11.57
2022-10-05T07:16:48.930Z,13.48
2022-10-05T07:19:32.385Z,10.88
2022-10-05T07:22:24.840Z,9.45
2022-10-05T07:25:02.595Z,11.20
2022-10-05T07:27:36.781Z,12.60
2022-10-05T07:30:10.980Z,13.00
2022-10-05T07:32:52.794Z,12.50
2022-10-05T07:35:48.945Z,11.32
2022-10-05T07:38:26.303Z,12.40
2022-10-05T07:41:05.782Z,9.02
2022-10-05T07:44:13.227Z,13.43
2022-10-05T07:46:50.241Z,10.65
2022-10-05T07:49:27.698Z,13.02
2022-10-05T07:52:01.703Z,10.00
2022-10-05T07:54:41.645Z,9.50
2022-10-05T07:57:23.896Z,8.23
2022-10-05T08:00:01.823Z,8.18
2022-10-05T08:02:46.577Z,8.73
2022-10-05T08:05:23.497Z,9.30
2022-10-05T08:07:58.038Z,12.32
2022-10-05T08:10:35.475Z,10.27
2022-10-05T08:13:15.763Z,10.43
2022-10-05T08:15:48.807Z,9.50
2022-10-05T08:18:38.597Z,10.77
2022-10-05T08:21:12.069Z,9.65
2022-10-05T08:23:48.461Z,13.18
2022-10-05T08:26:26.720Z,9.75
2022-10-05T08:29:13.773Z,13.52
2022-10-05T08:31:48.732Z,10.10
2022-10-05T08:34:27.369Z,10.80
2022-10-05T08:37:03.473Z,10.20
2022-10-05T08:39:38.565Z,12.25
2022-10-05T08:42:40.927Z,10.45
2022-10-05T08:45:52.222Z,7.68
2022-10-05T08:49:06.251Z,12.77
2022-10-05T08:51:58.327Z,10.45
2022-10-05T08:54:43.156Z,10.15
2022-10-05T08:57:53.484Z,11.35
2022-10-05T09:00:24.493Z,8.30
2022-10-05T09:03:29.860Z,11.75
2022-10-05T09:06:23.026Z,8.45
2022-10-05T09:09:19.515Z,9.75
2022-10-05T09:12:07.663Z,9.75
2022-10-05T09:15:13.696Z,10.23
2022-10-05T09:18:08.328Z,9.52
2022-10-05T09:20:47.915Z,9.13
2022-10-05T09:23:38.235Z,10.27
2022-10-05T09:26:30.081Z,10.98
2022-10-05T09:29:38.950Z,10.25
2022-10-05T09:32:36.803Z,11.13
2022-10-05T09:35:30.453Z,12.45
2022-10-05T09:38:16.760Z,8.30
2022-10-05T09:41:33.033Z,9.73
2022-10-05T09:44:36.350Z,9.77
2022-10-05T09:47:35.317Z,10.90
2022-10-05T09:50:40.923Z,9.57
2022-10-05T09:53:48.806Z,9.40
2022-10-05T09:56:36.039Z,10.13
2022-10-05T09:59:52.850Z,10.32
2022-10-05T10:02:38.852Z,8.80
2022-10-05T10:05:32.139Z,17.25
2022-10-05T10:08:20.301Z,9.93
2022-10-05T10:11:18.423Z,10.98
2022-10-05T10:14:21.405Z,10.13
2022-10-05T10:17:16.880Z,10.82
2022-10-05T10:20:19.472Z,9.52
2022-10-05T10:23:27.143Z,8.60
2022-10-05T10:26:16.243Z,8.88
2022-10-05T10:29:16.085Z,8.97
2022-10-05T10:31:59.194Z,10.23
2022-10-05T10:34:59.562Z,11.70
2022-10-05T10:37:58.550Z,10.88
2022-10-05T10:40:40.137Z,7.95
2022-10-05T10:43:45.629Z,10.32
2022-10-05T10:46:30.665Z,9.27
2022-10-05T10:49:16.266Z,9.45
2022-10-05T10:52:06.731Z,9.48
2022-10-05T10:57:35.119Z,10.80
2022-10-05T11:00:30.044Z,10.60
2022-10-05T11:03:29.404Z,10.48
2022-10-05T11:06:26.368Z,8.50
2022-10-05T11:09:40.939Z,9.30
2022-10-05T11:12:46.195Z,9.10
2022-10-05T11:15:56.665Z,8.75
2022-10-05T11:18:40.223Z,11.35
2022-10-05T11:21:30.332Z,12.43
2022-10-05T11:24:32.718Z,9.68
2022-10-05T11:27:43.786Z,13.63
2022-10-05T11:30:55.976Z,10.93
2022-10-05T11:34:01.730Z,13.13
2022-10-05T11:37:04.174Z,7.72
2022-10-05T11:39:44.981Z,10.93
2022-10-05T11:42:57.710Z,8.85
2022-10-05T11:45:40.063Z,8.68
2022-10-05T11:48:22.566Z,11.32
2022-10-05T11:51:18.843Z,13.00
2022-10-05T11:53:57.585Z,9.80
2022-10-05T11:56:34.885Z,8.82
2022-10-05T11:59:16.380Z,10.80
2022-10-05T12:01:53.903Z,9.43
2022-10-05T12:04:33.870Z,9.38
2022-10-05T12:10:17.450Z,7.60
2022-10-05T12:12:59.550Z,8.85
2022-10-05T12:15:38.475Z,11.60
2022-10-05T12:18:14.884Z,9.35
2022-10-05T12:20:51.103Z,7.18
2022-10-05T12:23:30.094Z,8.45
2022-10-05T12:26:05.108Z,7.85
2022-10-05T12:28:39.516Z,7.97
2022-10-05T12:31:20.383Z,12.98
2022-10-05T12:33:58.463Z,9.88
2022-10-05T12:36:59.713Z,8.00
2022-10-05T12:39:35.214Z,10.63
2022-10-05T12:42:15.535Z,9.10
2022-10-05T12:45:08.043Z,8.65
2022-10-05T12:47:53.790Z,7.85
2022-10-05T12:50:29.191Z,7.43
2022-10-05T12:53:16.305Z,7.55
2022-10-05T12:55:53.353Z,7.88
2022-10-05T12:58:35.152Z,7.80
2022-10-05T13:01:10.350Z,9.05
2022-10-05T13:03:47.478Z,10.50
2022-10-05T13:06:24.591Z,7.55
2022-10-05T13:09:02.521Z,10.80
2022-10-05T13:11:43.916Z,8.90
2022-10-05T13:14:24.791Z,8.82
2022-10-05T13:17:02.627Z,8.43
2022-10-05T13:19:40.410Z,9.73
2022-10-05T13:22:36.898Z,5.93
2022-10-05T13:25:22.959Z,7.35
2022-10-05T13:28:10.439Z,8.40
2022-10-05T13:30:42.163Z,11.15
2022-10-05T13:33:21.085Z,7.10
2022-10-05T13:36:01.390Z,12.10
2022-10-05T13:38:43.745Z,9.07
2022-10-05T13:41:24.513Z,8.30
2022-10-05T13:44:05.126Z,10.65
2022-10-05T13:46:39.742Z,9.27
2022-10-05T13:49:22.017Z,10.05
2022-10-05T13:52:01.596Z,7.82
2022-10-05T13:54:39.283Z,10.45
2022-10-05T13:57:21.462Z,8.00
2022-10-05T13:59:56.677Z,6.88
2022-10-05T14:02:31.063Z,6.32
2022-10-05T14:05:02.663Z,6.25
2022-10-05T14:07:39.562Z,9.95
2022-10-05T14:10:14.502Z,7.85
2022-10-05T14:12:45.818Z,7.78
2022-10-05T14:15:29.939Z,6.13
2022-10-05T14:17:59.443Z,8.23
2022-10-05T14:20:31.455Z,6.40
2022-10-05T14:23:04.692Z,8.48
2022-10-05T14:25:53.679Z,9.63
2022-10-05T14:28:29.700Z,7.55
2022-10-05T14:31:01.485Z,9.57
2022-10-05T14:33:32.264Z,9.35
2022-10-05T14:36:02.654Z,7.97
2022-10-05T14:38:51.581Z,8.15
2022-10-05T14:41:24.950Z,10.75
2022-10-05T14:44:02.054Z,7.85
2022-10-05T14:46:34.175Z,7.55
2022-10-05T14:49:21.566Z,8.35
2022-10-05T14:51:51.588Z,5.82
2022-10-05T14:54:41.953Z,11.20
2022-10-05T14:57:25.327Z,6.57
2022-10-05T15:00:05.125Z,8.00
2022-10-05T15:03:03.418Z,8.65
2022-10-05T15:05:39.177Z,8.40
2022-10-05T15:08:31.285Z,11.15
2022-10-05T15:11:07.577Z,10.15
2022-10-05T15:13:42.092Z,7.05
2022-10-05T15:16:20.233Z,9.95
2022-10-05T15:18:58.203Z,9.35
2022-10-05T15:21:50.642Z,6.75
2022-10-05T15:24:24.278Z,11.38
2022-10-05T15:26:58.002Z,9.68
2022-10-05T15:30:00.967Z,15.88
2022-10-05T15:32:41.707Z,17.67
2022-10-05T15:35:38.159Z,12.80
2022-10-05T15:38:21.256Z,8.85
2022-10-05T15:40:59.675Z,7.18
2022-10-05T15:43:46.581Z,10.52
2022-10-05T15:46:23.380Z,9.70
2022-10-05T15:49:08.490Z,11.75
2022-10-05T15:51:50.904Z,12.23
2022-10-05T15:54:42.915Z,10.80
2022-10-05T15:57:26.508Z,10.65
2022-10-05T16:00:04.337Z,12.77
2022-10-05T16:02:43.223Z,9.45
2022-10-05T16:05:59.239Z,9.55
2022-10-05T16:08:55.243Z,12.05
2022-10-05T16:11:50.197Z,12.55
2022-10-05T16:14:40.142Z,13.30
2022-10-05T16:17:29.158Z,15.48
2022-10-05T16:20:15.404Z,14.13
2022-10-05T16:22:52.118Z,14.05
2022-10-05T16:25:25.086Z,13.52
2022-10-05T16:28:12.834Z,12.52
2022-10-05T16:30:54.330Z,15.57
2022-10-05T16:33:32.431Z,16.65
2022-10-05T16:36:31.879Z,14.10
2022-10-05T16:39:08.181Z,15.63
2022-10-05T16:41:44.648Z,16.20
2022-10-05T16:44:24.072Z,14.25
2022-10-05T16:46:59.567Z,16.23
2022-10-05T16:49:40.078Z,11.18
2022-10-05T16:52:15.241Z,14.25
2022-10-05T16:54:48.816Z,14.32
2022-10-05T16:57:24.920Z,14.43
2022-10-05T17:00:12.090Z,15.32
2022-10-05T17:05:44.260Z,15.55
2022-10-05T17:08:31.800Z,16.92
2022-10-05T17:11:16.684Z,14.52
2022-10-05T17:14:10.093Z,16.30
2022-10-05T17:16:54.038Z,20.92
2022-10-05T17:19:43.161Z,18.85
2022-10-05T17:22:22.706Z,21.30
2022-10-05T17:25:05.727Z,19.20
2022-10-05T17:27:51.063Z,16.77
2022-10-05T17:30:44.589Z,16.88
2022-10-05T17:33:29.079Z,14.05
2022-10-05T17:36:18.541Z,18.17
2022-10-05T17:38:52.378Z,16.73
2022-10-05T17:41:24.987Z,14.70
2022-10-05T17:44:28.193Z,20.65
2022-10-05T17:46:59.458Z,16.83
2022-10-05T17:50:09.166Z,18.13
2022-10-05T17:52:59.996Z,14.30
2022-10-05T17:56:03.347Z,13.27
2022-10-05T17:59:03.200Z,19.10
2022-10-05T18:01:35.840Z,20.38
2022-10-05T18:04:42.252Z,18.77
2022-10-05T18:07:23.848Z,18.50
2022-10-05T18:10:17.562Z,18.88
2022-10-05T18:12:50.768Z,22.75
2022-10-05T18:15:48.647Z,24.92
2022-10-05T18:18:55.904Z,23.58
2022-10-05T18:21:38.005Z,21.02
2022-10-05T18:24:53.112Z,21.38
2022-10-05T18:27:55.315Z,22.27
2022-10-05T18:30:27.635Z,23.15
2022-10-05T18:33:27.204Z,25.23
2022-10-05T18:36:14.318Z,19.90
2022-10-05T18:38:51.281Z,20.42
2022-10-05T18:41:31.658Z,21.90
2022-10-05T18:44:19.737Z,16.88
2022-10-05T18:46:56.555Z,17.95
2022-10-05T18:49:38.594Z,18.27
2022-10-05T18:52:17.527Z,20.73
2022-10-05T18:54:58.890Z,18.42
2022-10-05T18:57:48.819Z,20.77
2022-10-05T19:00:20.803Z,21.58
2022-10-05T19:02:57.125Z,20.58
2022-10-05T19:05:47.998Z,18.63
2022-10-05T19:08:29.885Z,18.15
2022-10-05T19:11:05.931Z,19.77
2022-10-05T19:13:44.766Z,19.42
2022-10-05T19:16:31.020Z,18.65
2022-10-05T19:19:29.432Z,21.63
2022-10-05T19:22:07.261Z,19.17
2022-10-05T19:24:48.158Z,20.50
2022-10-05T19:27:28.203Z,24.48
2022-10-05T19:30:14.665Z,24.02
2022-10-05T19:33:06.069Z,23.50
2022-10-05T19:35:48.348Z,24.42
2022-10-05T19:38:27.918Z,25.42
2022-10-05T19:41:04.311Z,24.40
2022-10-05T19:44:05.164Z,19.60
2022-10-05T19:46:48.898Z,27.80
2022-10-05T19:49:39.085Z,23.55
2022-10-05T19:52:14.836Z,25.58
2022-10-05T19:54:44.338Z,21.27
2022-10-05T19:57:18.185Z,22.50
2022-10-05T19:59:48.995Z,20.02
2022-10-05T20:02:19.484Z,20.80
2022-10-05T20:04:49.803Z,22.08
2022-10-05T20:07:22.944Z,20.92
2022-10-05T20:09:54.982Z,23.25
2022-10-05T20:12:44.314Z,22.02
2022-10-05T20:15:37.682Z,20.48
2022-10-05T20:18:58.001Z,20.75
2022-10-05T20:21:47.807Z,23.50
2022-10-05T20:24:20.699Z,25.75
2022-10-05T20:27:05.255Z,30.27
2022-10-05T20:29:36.972Z,30.90
2022-10-05T20:32:09.850Z,32.17
2022-10-05T20:34:41.353Z,26.63
2022-10-05T20:37:11.511Z,25.10
2022-10-05T20:42:12.181Z,22.02
2022-10-05T20:44:41.546Z,24.33
2022-10-05T20:47:11.592Z,17.48
2022-10-05T20:49:42.151Z,17.67
2022-10-05T20:52:13.269Z,21.52
2022-10-05T20:57:20.883Z,18.35
2022-10-05T20:59:50.019Z,21.10
2022-10-05T21:02:20.226Z,18.83
2022-10-05T21:04:49.950Z,16.40
2022-10-05T21:07:21.750Z,19.52
2022-10-05T21:09:58.165Z,19.58
2022-10-05T21:12:27.891Z,17.27
2022-10-05T21:14:57.190Z,16.40
2022-10-05T21:17:26.394Z,16.67
2022-10-05T21:19:55.702Z,16.00
2022-10-05T21:22:25.858Z,18.95
2022-10-05T21:27:25.552Z,14.18
2022-10-05T21:29:54.692Z,16.75
2022-10-05T21:32:23.821Z,16.30
2022-10-05T21:34:53.246Z,19.60
2022-10-05T21:37:22.450Z,17.27
2022-10-05T21:39:51.621Z,16.85
2022-10-05T21:42:23.603Z,14.70
2022-10-05T21:44:52.918Z,14.73
2022-10-05T21:47:22.335Z,22.58
2022-10-05T21:49:51.551Z,14.98
2022-10-05T21:52:21.055Z,14.65
2022-10-05T21:55:15.809Z,17.47
2022-10-05T21:57:48.249Z,15.43
2022-10-05T22:00:17.652Z,14.20
2022-10-05T22:02:48.509Z,16.92
2022-10-05T22:05:17.866Z,17.80
2022-10-05T22:07:47.280Z,15.65
2022-10-05T22:10:16.859Z,16.63
2022-10-05T22:12:47.523Z,15.65
2022-10-05T22:15:17.452Z,14.43
2022-10-05T22:17:46.697Z,14.50
2022-10-05T22:20:15.918Z,15.03
2022-10-05T22:22:45.239Z,13.18
2022-10-05T22:25:14.443Z,13.73
2022-10-05T22:27:43.827Z,15.52
2022-10-05T22:30:15.748Z,15.80
2022-10-05T22:32:45.335Z,13.93
2022-10-05T22:35:14.750Z,17.42
2022-10-05T22:37:44.362Z,14.80
2022-10-05T22:40:13.600Z,15.23
2022-10-05T22:42:43.284Z,15.48
2022-10-05T22:45:14.308Z,13.23
2022-10-05T22:47:43.654Z,12.88
2022-10-05T22:50:12.907Z,15.63
2022-10-05T22:52:42.675Z,14.00
2022-10-05T22:55:12.266Z,16.23
2022-10-05T22:57:42.148Z,18.98
2022-10-05T23:00:14.219Z,16.83
2022-10-05T23:02:45.251Z,13.15
2022-10-05T23:05:17.099Z,16.13
2022-10-05T23:07:47.975Z,17.40
2022-10-05T23:10:19.418Z,19.35
2022-10-05T23:13:00.363Z,17.10
2022-10-05T23:15:31.467Z,21.63
2022-10-05T23:18:00.826Z,16.40
2022-10-05T23:20:30.069Z,14.70
2022-10-05T23:23:01.363Z,13.68
2022-10-05T23:25:30.671Z,17.58
2022-10-05T23:27:59.821Z,11.73
2022-10-05T23:30:30.382Z,19.67
2022-10-05T23:32:59.799Z,15.52
2022-10-05T23:35:28.929Z,17.45
2022-10-05T23:37:58.082Z,19.48
2022-10-05T23:40:27.522Z,15.67
2022-10-05T23:42:56.645Z,13.20
2022-10-05T23:45:25.778Z,14.68
2022-10-05T23:47:56.551Z,14.90
2022-10-05T23:50:27.008Z,20.00
2022-10-05T23:52:56.347Z,14.90
2022-10-05T23:55:25.490Z,12.77
2022-10-05T23:57:54.606Z,17.77
